createdAt,value
2022-08-26T00:01:54.095Z,21.21
2022-08-26T00:04:23.420Z,21.18
2022-08-26T00:06:50.207Z,21.24
2022-08-26T00:09:16.961Z,21.30
2022-08-26T00:11:47.261Z,21.36
2022-08-26T00:14:15.770Z,21.39
2022-08-26T00:16:47.545Z,21.35
2022-08-26T00:19:18.198Z,21.35
2022-08-26T00:21:46.463Z,21.40
2022-08-26T00:24:19.953Z,21.47
2022-08-26T00:26:47.249Z,21.41
2022-08-26T00:29:16.247Z,21.38
2022-08-26T00:31:45.287Z,21.41
2022-08-26T00:34:12.850Z,21.48
2022-08-26T00:36:40.953Z,21.47
2022-08-26T00:39:08.270Z,21.47
2022-08-26T00:41:37.792Z,21.54
2022-08-26T00:44:05.523Z,21.50
2022-08-26T00:46:37.099Z,21.52
2022-08-26T00:49:18.042Z,21.53
2022-08-26T00:51:50.834Z,21.59
2022-08-26T00:54:19.872Z,21.52
2022-08-26T00:57:02.507Z,21.56
2022-08-26T00:59:32.882Z,21.57
2022-08-26T01:02:00.435Z,21.62
2022-08-26T01:04:31.912Z,21.65
2022-08-26T01:06:59.185Z,21.54
2022-08-26T01:09:27.008Z,21.55
2022-08-26T01:11:57.513Z,21.55
2022-08-26T01:14:29.647Z,21.49
2022-08-26T01:16:56.373Z,21.52
2022-08-26T01:19:31.715Z,21.47
2022-08-26T01:22:03.112Z,21.46
2022-08-26T01:24:30.887Z,21.53
2022-08-26T01:27:01.607Z,21.53
2022-08-26T01:29:29.971Z,21.53
2022-08-26T01:31:57.624Z,21.51
2022-08-26T01:34:34.992Z,21.51
2022-08-26T01:37:07.437Z,21.50
2022-08-26T01:39:36.465Z,21.58
2022-08-26T01:42:10.306Z,21.60
2022-08-26T01:44:51.524Z,21.48
2022-08-26T01:47:24.360Z,21.47
2022-08-26T01:49:54.801Z,21.39
2022-08-26T01:52:28.176Z,21.40
2022-08-26T01:54:56.287Z,21.49
2022-08-26T01:57:25.329Z,21.52
2022-08-26T01:59:55.377Z,21.50
2022-08-26T02:02:23.545Z,21.50
2022-08-26T02:04:58.276Z,21.48
2022-08-26T02:07:26.844Z,21.46
2022-08-26T02:09:53.954Z,21.50
2022-08-26T02:12:20.725Z,21.40
2022-08-26T02:14:54.129Z,21.32
2022-08-26T02:17:26.246Z,21.41
2022-08-26T02:19:53.441Z,21.35
2022-08-26T02:22:24.637Z,21.32
2022-08-26T02:25:01.116Z,21.29
2022-08-26T02:27:32.792Z,21.28
2022-08-26T02:30:28.201Z,21.26
2022-08-26T02:32:57.748Z,21.23
2022-08-26T02:35:25.892Z,21.29
2022-08-26T02:37:53.096Z,21.33
2022-08-26T02:40:24.827Z,21.29
2022-08-26T02:42:52.908Z,21.33
2022-08-26T02:45:23.821Z,21.21
2022-08-26T02:47:52.386Z,21.18
2022-08-26T02:50:19.522Z,21.07
2022-08-26T02:52:46.313Z,21.03
2022-08-26T02:55:13.100Z,20.95
2022-08-26T02:57:39.703Z,20.95
2022-08-26T03:00:09.901Z,20.93
2022-08-26T03:02:40.125Z,20.97
2022-08-26T03:05:07.501Z,20.99
2022-08-26T03:07:34.512Z,20.96
2022-08-26T03:10:01.164Z,21.01
2022-08-26T03:12:34.304Z,20.96
2022-08-26T03:15:01.582Z,20.98
2022-08-26T03:17:28.229Z,20.99
2022-08-26T03:19:57.260Z,20.96
2022-08-26T03:22:25.193Z,20.94
2022-08-26T03:24:52.297Z,20.85
2022-08-26T03:27:19.101Z,20.86
2022-08-26T03:30:04.239Z,20.87
2022-08-26T03:32:31.322Z,20.87
2022-08-26T03:34:58.525Z,20.79
2022-08-26T03:37:25.153Z,20.88
2022-08-26T03:39:52.589Z,20.89
2022-08-26T03:42:21.538Z,20.92
2022-08-26T03:44:48.942Z,20.91
2022-08-26T03:47:15.824Z,20.90
2022-08-26T03:49:42.470Z,20.88
2022-08-26T03:52:09.441Z,20.84
2022-08-26T03:54:36.687Z,20.91
2022-08-26T03:57:06.297Z,20.95
2022-08-26T03:59:32.934Z,20.91
2022-08-26T04:01:59.822Z,20.93
2022-08-26T04:04:26.442Z,20.92
2022-08-26T04:07:00.965Z,20.97
2022-08-26T04:09:28.285Z,20.94
2022-08-26T04:11:58.666Z,20.90
2022-08-26T04:14:27.682Z,20.91
2022-08-26T04:16:55.399Z,20.91
2022-08-26T04:19:23.603Z,20.94
2022-08-26T04:21:53.402Z,20.96
2022-08-26T04:24:24.122Z,20.97
2022-08-26T04:26:51.088Z,20.93
2022-08-26T04:29:21.682Z,20.96
2022-08-26T04:31:48.583Z,20.99
2022-08-26T04:34:16.028Z,21.02
2022-08-26T04:36:43.809Z,21.08
2022-08-26T04:39:12.708Z,21.08
2022-08-26T04:41:39.999Z,21.08
2022-08-26T04:44:07.733Z,21.13
2022-08-26T04:46:35.186Z,21.08
2022-08-26T04:49:08.494Z,21.02
2022-08-26T04:51:36.211Z,21.09
2022-08-26T04:54:06.924Z,21.08
2022-08-26T04:56:37.482Z,21.13
2022-08-26T04:59:07.984Z,21.18
2022-08-26T05:01:46.228Z,21.22
2022-08-26T05:04:13.650Z,21.21
2022-08-26T05:06:43.598Z,21.25
2022-08-26T05:09:10.792Z,21.28
2022-08-26T05:11:38.401Z,21.30
2022-08-26T05:14:06.056Z,21.28
2022-08-26T05:16:32.716Z,21.31
2022-08-26T05:18:59.502Z,21.38
2022-08-26T05:21:29.170Z,21.32
2022-08-26T05:23:57.075Z,21.33
2022-08-26T05:26:29.554Z,21.27
2022-08-26T05:28:56.874Z,21.43
2022-08-26T05:31:28.531Z,21.49
2022-08-26T05:33:57.469Z,21.52
2022-08-26T05:36:28.169Z,21.52
2022-08-26T05:38:57.363Z,21.54
2022-08-26T05:41:34.588Z,21.61
2022-08-26T05:44:05.847Z,21.66
2022-08-26T05:46:33.866Z,21.64
2022-08-26T05:49:01.213Z,21.63
2022-08-26T05:51:27.866Z,21.59
2022-08-26T05:53:57.793Z,21.65
2022-08-26T05:56:26.117Z,21.76
2022-08-26T05:58:53.567Z,21.78
2022-08-26T06:01:23.665Z,21.81
2022-08-26T06:03:52.366Z,21.85
2022-08-26T06:06:27.460Z,21.87
2022-08-26T06:08:59.041Z,21.91
2022-08-26T06:11:27.848Z,21.91
2022-08-26T06:14:01.355Z,21.99
2022-08-26T06:16:31.375Z,21.99
2022-08-26T06:18:58.003Z,22.04
2022-08-26T06:21:29.131Z,22.06
2022-08-26T06:24:17.131Z,22.03
2022-08-26T06:26:50.355Z,22.03
2022-08-26T06:29:24.627Z,22.09
2022-08-26T06:31:52.876Z,22.02
2022-08-26T06:34:19.805Z,22.14
2022-08-26T06:36:47.284Z,22.21
2022-08-26T06:39:16.619Z,22.28
2022-08-26T06:41:45.018Z,22.22
2022-08-26T06:44:17.600Z,22.18
2022-08-26T06:46:45.909Z,22.27
2022-08-26T06:49:17.243Z,22.28
2022-08-26T06:51:44.242Z,22.38
2022-08-26T06:54:11.542Z,22.53
2022-08-26T06:56:42.675Z,22.55
2022-08-26T06:59:12.562Z,22.51
2022-08-26T07:01:45.675Z,22.54
2022-08-26T07:04:15.726Z,22.57
2022-08-26T07:06:48.931Z,22.59
2022-08-26T07:09:17.406Z,22.59
2022-08-26T07:11:45.008Z,22.72
2022-08-26T07:14:12.477Z,22.86
2022-08-26T07:16:41.216Z,22.95
2022-08-26T07:19:11.448Z,23.03
2022-08-26T07:21:41.541Z,23.00
2022-08-26T07:24:10.986Z,22.92
2022-08-26T07:26:39.281Z,22.99
2022-08-26T07:29:12.320Z,23.05
2022-08-26T07:31:39.570Z,23.10
2022-08-26T07:34:13.942Z,23.10
2022-08-26T07:36:41.354Z,23.19
2022-08-26T07:39:08.629Z,23.24
2022-08-26T07:41:36.511Z,23.11
2022-08-26T07:44:04.259Z,23.21
2022-08-26T07:46:31.192Z,23.41
2022-08-26T07:48:58.384Z,23.51
2022-08-26T07:51:25.795Z,23.60
2022-08-26T07:53:55.551Z,23.73
2022-08-26T07:56:24.030Z,23.72
2022-08-26T07:58:53.123Z,23.78
2022-08-26T08:01:21.599Z,23.92
2022-08-26T08:03:51.573Z,23.92
2022-08-26T08:06:19.769Z,23.90
2022-08-26T08:08:48.441Z,23.88
2022-08-26T08:11:21.607Z,23.72
2022-08-26T08:13:56.102Z,23.80
2022-08-26T08:16:32.233Z,23.86
2022-08-26T08:19:00.567Z,24.01
2022-08-26T08:21:27.897Z,24.05
2022-08-26T08:23:57.476Z,24.17
2022-08-26T08:26:26.213Z,24.34
2022-08-26T08:28:57.480Z,24.52
2022-08-26T08:34:16.971Z,24.60
2022-08-26T08:36:46.238Z,24.69
2022-08-26T08:39:13.589Z,24.69
2022-08-26T08:41:58.559Z,24.76
2022-08-26T08:47:06.088Z,24.78
2022-08-26T08:49:34.650Z,24.75
2022-08-26T08:52:10.818Z,24.79
2022-08-26T08:54:38.187Z,24.75
2022-08-26T08:57:14.974Z,24.92
2022-08-26T08:59:51.984Z,25.07
2022-08-26T09:02:46.617Z,25.11
2022-08-26T09:05:25.953Z,25.00
2022-08-26T09:07:59.375Z,24.95
2022-08-26T09:10:36.993Z,24.91
2022-08-26T09:13:16.967Z,24.81
2022-08-26T09:16:04.285Z,24.84
2022-08-26T09:18:49.779Z,24.90
2022-08-26T09:21:19.448Z,24.95
2022-08-26T09:23:49.535Z,25.03
2022-08-26T09:26:30.757Z,25.07
2022-08-26T09:29:02.140Z,25.13
2022-08-26T09:31:37.456Z,25.21
2022-08-26T09:34:18.306Z,25.18
2022-08-26T09:36:53.529Z,25.21
2022-08-26T09:39:23.871Z,25.10
2022-08-26T09:42:05.842Z,25.17
2022-08-26T09:44:33.563Z,25.18
2022-08-26T09:47:07.032Z,25.15
2022-08-26T09:49:36.399Z,25.31
2022-08-26T09:52:23.735Z,25.45
2022-08-26T09:55:03.485Z,25.43
2022-08-26T09:57:34.290Z,25.52
2022-08-26T10:00:03.060Z,25.56
2022-08-26T10:02:41.776Z,25.51
2022-08-26T10:05:26.330Z,25.57
2022-08-26T10:07:54.818Z,25.68
2022-08-26T10:10:39.496Z,25.75
2022-08-26T10:13:23.759Z,25.65
2022-08-26T10:15:56.367Z,25.72
2022-08-26T10:18:34.755Z,25.87
2022-08-26T10:21:10.949Z,25.85
2022-08-26T10:23:45.893Z,25.92
2022-08-26T10:26:33.644Z,25.97
2022-08-26T10:29:08.894Z,26.18
2022-08-26T10:31:40.985Z,26.36
2022-08-26T10:34:12.535Z,26.38
2022-08-26T10:37:13.678Z,26.43
2022-08-26T10:39:49.120Z,26.43
2022-08-26T10:42:26.035Z,26.44
2022-08-26T10:45:02.486Z,26.46
2022-08-26T10:47:37.792Z,26.43
2022-08-26T10:50:05.697Z,26.51
2022-08-26T10:52:46.297Z,26.59
2022-08-26T10:55:27.520Z,26.70
2022-08-26T10:58:28.039Z,26.77
2022-08-26T11:01:25.935Z,26.81
2022-08-26T11:04:10.234Z,26.96
2022-08-26T11:06:37.856Z,27.04
2022-08-26T11:09:08.562Z,26.89
2022-08-26T11:11:43.595Z,26.91
2022-08-26T11:14:16.290Z,27.06
2022-08-26T11:16:57.333Z,27.26
2022-08-26T11:19:59.044Z,27.17
2022-08-26T11:22:28.599Z,27.24
2022-08-26T11:24:55.357Z,27.29
2022-08-26T11:27:28.918Z,27.20
2022-08-26T11:30:05.289Z,26.84
2022-08-26T11:32:35.074Z,27.06
2022-08-26T11:35:06.291Z,27.31
2022-08-26T11:37:45.646Z,27.51
2022-08-26T11:46:09.211Z,27.85
2022-08-26T11:48:39.879Z,27.89
2022-08-26T11:51:32.902Z,28.01
2022-08-26T11:54:34.530Z,28.13
2022-08-26T11:57:11.818Z,28.27
2022-08-26T11:59:41.321Z,28.31
2022-08-26T12:02:17.979Z,28.46
2022-08-26T12:04:48.895Z,28.37
2022-08-26T12:07:23.746Z,28.31
2022-08-26T12:10:00.590Z,28.44
2022-08-26T12:12:35.214Z,28.52
2022-08-26T12:15:12.638Z,28.66
2022-08-26T12:17:40.704Z,28.69
2022-08-26T12:20:30.296Z,28.84
2022-08-26T12:23:00.239Z,28.98
2022-08-26T12:25:36.051Z,29.15
2022-08-26T12:28:07.154Z,29.07
2022-08-26T12:30:34.138Z,29.14
2022-08-26T12:33:23.040Z,29.08
2022-08-26T12:35:56.643Z,29.24
2022-08-26T12:38:26.212Z,29.33
2022-08-26T12:40:53.763Z,29.40
2022-08-26T12:43:41.945Z,29.34
2022-08-26T12:46:12.973Z,29.25
2022-08-26T12:48:44.040Z,29.32
2022-08-26T12:51:29.301Z,29.63
2022-08-26T12:54:00.108Z,29.72
2022-08-26T12:56:54.515Z,29.74
2022-08-26T12:59:27.138Z,29.79
2022-08-26T13:01:54.467Z,29.82
2022-08-26T13:04:43.050Z,30.01
2022-08-26T13:07:36.634Z,29.84
2022-08-26T13:10:03.582Z,29.79
2022-08-26T13:12:33.116Z,29.99
2022-08-26T13:15:01.605Z,30.24
2022-08-26T13:17:30.212Z,30.20
2022-08-26T13:20:03.328Z,30.38
2022-08-26T13:22:32.205Z,30.45
2022-08-26T13:25:01.851Z,30.59
2022-08-26T13:27:29.187Z,30.70
2022-08-26T13:29:57.824Z,31.00
2022-08-26T13:32:27.499Z,31.12
2022-08-26T13:34:56.472Z,31.26
2022-08-26T13:37:24.396Z,31.18
2022-08-26T13:40:01.889Z,31.48
2022-08-26T13:42:29.429Z,31.66
2022-08-26T13:44:58.254Z,31.56
2022-08-26T13:47:26.286Z,31.63
2022-08-26T13:49:55.403Z,31.59
2022-08-26T13:52:30.129Z,31.28
2022-08-26T13:55:01.678Z,31.16
2022-08-26T13:57:30.509Z,31.21
2022-08-26T14:00:00.805Z,31.07
2022-08-26T14:02:29.044Z,30.87
2022-08-26T14:04:57.938Z,30.87
2022-08-26T14:07:25.094Z,30.86
2022-08-26T14:09:51.970Z,30.75
2022-08-26T14:12:18.941Z,30.71
2022-08-26T14:14:47.686Z,30.82
2022-08-26T14:17:21.676Z,30.91
2022-08-26T14:19:50.081Z,30.66
2022-08-26T14:28:22.643Z,30.07
2022-08-26T14:30:59.333Z,29.81
2022-08-26T14:33:32.452Z,29.87
2022-08-26T14:36:19.548Z,30.12
2022-08-26T14:38:47.756Z,30.43
2022-08-26T14:41:19.720Z,30.65
2022-08-26T14:44:05.642Z,30.45
2022-08-26T14:46:43.558Z,30.33
2022-08-26T14:49:10.902Z,29.52
2022-08-26T14:51:38.583Z,28.50
2022-08-26T14:54:14.437Z,28.20
2022-08-26T14:56:58.726Z,27.71
2022-08-26T14:59:29.988Z,27.87
2022-08-26T15:01:59.026Z,27.67
2022-08-26T15:04:26.773Z,27.58
2022-08-26T15:06:55.574Z,27.16
2022-08-26T15:09:23.413Z,26.32
2022-08-26T15:11:50.783Z,26.43
2022-08-26T15:14:19.629Z,26.00
2022-08-26T15:16:52.593Z,25.07
2022-08-26T15:19:20.898Z,25.53
2022-08-26T15:21:48.072Z,25.22
2022-08-26T15:24:18.820Z,25.73
2022-08-26T15:26:46.822Z,25.98
2022-08-26T15:29:14.577Z,25.75
2022-08-26T15:31:43.765Z,25.80
2022-08-26T15:34:16.031Z,25.62
2022-08-26T15:36:46.803Z,25.44
2022-08-26T15:39:15.186Z,25.09
2022-08-26T15:41:42.155Z,24.61
2022-08-26T15:44:10.967Z,25.08
2022-08-26T15:46:38.710Z,25.38
2022-08-26T15:49:06.127Z,25.35
2022-08-26T15:51:35.935Z,25.18
2022-08-26T15:54:13.375Z,25.35
2022-08-26T15:56:43.692Z,25.40
2022-08-26T15:59:11.640Z,25.40
2022-08-26T16:01:39.306Z,25.55
2022-08-26T16:04:06.761Z,25.34
2022-08-26T16:06:36.287Z,24.84
2022-08-26T16:09:03.831Z,24.91
2022-08-26T16:11:31.274Z,24.96
2022-08-26T16:13:58.345Z,25.19
2022-08-26T16:16:25.210Z,25.08
2022-08-26T16:18:52.367Z,25.08
2022-08-26T16:21:22.487Z,24.88
2022-08-26T16:23:49.370Z,24.90
2022-08-26T16:26:19.754Z,24.88
2022-08-26T16:28:47.466Z,24.70
2022-08-26T16:31:16.660Z,24.89
2022-08-26T16:33:43.597Z,24.74
2022-08-26T16:36:13.883Z,24.97
2022-08-26T16:38:41.364Z,24.75
2022-08-26T16:41:08.922Z,24.59
2022-08-26T16:43:35.899Z,24.30
2022-08-26T16:46:07.553Z,24.20
2022-08-26T16:48:35.314Z,24.30
2022-08-26T16:51:02.342Z,24.51
2022-08-26T16:53:29.158Z,24.57
2022-08-26T16:55:55.870Z,24.83
2022-08-26T16:58:25.530Z,25.00
2022-08-26T17:00:52.502Z,24.95
2022-08-26T17:03:22.461Z,24.96
2022-08-26T17:05:49.232Z,25.02
2022-08-26T17:08:28.344Z,24.92
2022-08-26T17:10:56.572Z,24.62
2022-08-26T17:13:35.033Z,24.56
2022-08-26T17:16:05.138Z,24.70
2022-08-26T17:18:47.700Z,24.78
2022-08-26T17:21:14.926Z,24.75
2022-08-26T17:23:43.196Z,24.75
2022-08-26T17:26:12.073Z,24.84
2022-08-26T17:28:41.782Z,24.80
2022-08-26T17:31:13.278Z,24.71
2022-08-26T17:33:42.358Z,24.64
2022-08-26T17:36:12.597Z,24.65
2022-08-26T17:38:39.986Z,24.74
2022-08-26T17:41:11.196Z,24.54
2022-08-26T17:43:39.419Z,24.42
2022-08-26T17:46:08.414Z,24.33
2022-08-26T17:48:40.046Z,24.22
2022-08-26T17:51:15.425Z,24.14
2022-08-26T17:53:46.644Z,24.25
2022-08-26T17:56:15.665Z,24.25
2022-08-26T17:58:48.069Z,24.10
2022-08-26T18:01:20.511Z,24.07
2022-08-26T18:03:47.587Z,24.11
2022-08-26T18:06:15.864Z,23.99
2022-08-26T18:08:45.364Z,23.98
2022-08-26T18:11:15.929Z,23.79
2022-08-26T18:13:47.259Z,23.73
2022-08-26T18:16:16.250Z,23.64
2022-08-26T18:22:49.178Z,23.56
2022-08-26T18:25:17.436Z,23.59
2022-08-26T18:27:44.120Z,23.60
2022-08-26T18:42:23.557Z,23.35
2022-08-26T18:44:51.257Z,23.33
2022-08-26T18:47:18.046Z,23.37
2022-08-26T18:49:46.161Z,23.42
2022-08-26T18:52:13.001Z,23.47
2022-08-26T18:54:39.726Z,23.42
2022-08-26T18:57:06.585Z,23.45
2022-08-26T18:59:33.807Z,23.39
2022-08-26T19:02:00.792Z,23.33
2022-08-26T19:04:27.572Z,23.25
2022-08-26T19:06:54.235Z,23.16
2022-08-26T19:09:21.600Z,23.19
2022-08-26T19:11:50.006Z,23.20
2022-08-26T19:14:17.048Z,23.15
2022-08-26T19:16:46.198Z,23.04
2022-08-26T19:19:13.449Z,23.01
2022-08-26T19:21:40.765Z,22.96
2022-08-26T19:24:15.323Z,22.98
2022-08-26T19:26:46.715Z,22.97
2022-08-26T19:29:15.382Z,22.96
2022-08-26T19:31:43.938Z,22.94
2022-08-26T19:34:13.537Z,22.96
2022-08-26T19:36:43.068Z,23.00
2022-08-26T19:39:14.305Z,23.02
2022-08-26T19:41:41.461Z,23.17
2022-08-26T19:44:12.956Z,23.28
2022-08-26T19:46:39.908Z,23.40
2022-08-26T19:49:06.729Z,23.57
2022-08-26T19:51:35.207Z,23.58
2022-08-26T19:54:02.382Z,23.59
2022-08-26T19:56:31.900Z,23.61
2022-08-26T19:58:58.691Z,23.74
2022-08-26T20:01:26.204Z,23.83
2022-08-26T20:03:53.117Z,23.88
2022-08-26T20:06:20.846Z,23.89
2022-08-26T20:08:47.767Z,23.86
2022-08-26T20:11:18.710Z,23.63
2022-08-26T20:13:46.858Z,23.48
2022-08-26T20:16:14.230Z,23.41
2022-08-26T20:19:00.602Z,23.56
2022-08-26T20:21:29.487Z,23.72
2022-08-26T20:24:05.945Z,23.73
2022-08-26T20:26:35.237Z,23.74
2022-08-26T20:29:01.959Z,23.73
2022-08-26T20:31:29.676Z,23.63
2022-08-26T20:33:56.531Z,23.54
2022-08-26T20:36:26.813Z,23.59
2022-08-26T20:38:54.750Z,23.57
2022-08-26T20:41:22.588Z,23.64
2022-08-26T20:43:49.380Z,23.64
2022-08-26T20:46:17.968Z,23.73
2022-08-26T20:48:47.962Z,23.70
2022-08-26T20:51:16.627Z,23.56
2022-08-26T20:53:44.479Z,23.36
2022-08-26T20:56:13.406Z,23.37
2022-08-26T20:58:40.876Z,23.36
2022-08-26T21:01:08.956Z,23.35
2022-08-26T21:03:36.514Z,23.30
2022-08-26T21:06:03.914Z,23.23
2022-08-26T21:08:32.023Z,23.16
2022-08-26T21:11:00.914Z,23.04
2022-08-26T21:13:35.828Z,22.99
2022-08-26T21:16:11.463Z,22.90
2022-08-26T21:18:39.040Z,22.81
2022-08-26T21:21:09.820Z,22.72
2022-08-26T21:23:39.618Z,22.71
2022-08-26T21:26:15.050Z,22.69
2022-08-26T21:28:44.108Z,22.69
2022-08-26T21:31:14.128Z,22.59
2022-08-26T21:33:41.663Z,22.53
2022-08-26T21:36:10.082Z,22.54
2022-08-26T21:38:37.868Z,22.48
2022-08-26T21:41:19.305Z,22.47
2022-08-26T21:43:47.933Z,22.52
2022-08-26T21:46:17.426Z,22.49
2022-08-26T21:48:50.703Z,22.56
2022-08-26T21:51:20.366Z,22.54
2022-08-26T21:53:47.535Z,22.54
2022-08-26T21:56:16.157Z,22.52
2022-08-26T21:58:42.949Z,22.47
2022-08-26T22:01:16.119Z,22.44
2022-08-26T22:03:47.341Z,22.39
2022-08-26T22:06:23.535Z,22.44
2022-08-26T22:08:50.925Z,22.50
2022-08-26T22:11:18.886Z,22.42
2022-08-26T22:13:47.205Z,22.41
2022-08-26T22:16:14.421Z,22.28
2022-08-26T22:18:43.811Z,22.21
2022-08-26T22:21:16.643Z,22.15
2022-08-26T22:23:44.282Z,22.23
2022-08-26T22:26:13.118Z,22.27
2022-08-26T22:28:42.371Z,22.31
2022-08-26T22:31:14.370Z,22.32
2022-08-26T22:33:46.445Z,22.42
2022-08-26T22:36:20.514Z,22.54
2022-08-26T22:38:50.497Z,22.62
2022-08-26T22:41:18.312Z,22.62
2022-08-26T22:43:46.284Z,22.60
2022-08-26T22:46:21.808Z,22.59
2022-08-26T22:48:53.725Z,22.53
2022-08-26T22:51:22.153Z,22.55
2022-08-26T22:53:49.181Z,22.62
2022-08-26T22:56:18.481Z,22.67
2022-08-26T22:58:45.625Z,22.59
2022-08-26T23:01:16.937Z,22.65
2022-08-26T23:03:45.339Z,22.71
2022-08-26T23:06:12.255Z,22.78
2022-08-26T23:08:41.854Z,22.87
2022-08-26T23:11:14.351Z,22.82
2022-08-26T23:13:41.143Z,22.80
2022-08-26T23:16:11.084Z,22.87
2022-08-26T23:18:38.984Z,22.99
2022-08-26T23:21:06.025Z,23.05
2022-08-26T23:23:33.356Z,23.03
2022-08-26T23:26:03.232Z,22.96
2022-08-26T23:28:35.974Z,23.02
2022-08-26T23:31:02.808Z,23.06
2022-08-26T23:33:52.214Z,23.14
2022-08-26T23:36:22.960Z,23.06
2022-08-26T23:38:53.786Z,22.91
2022-08-26T23:41:22.470Z,22.91
2022-08-26T23:43:49.711Z,22.86
2022-08-26T23:46:16.667Z,22.78
2022-08-26T23:48:43.848Z,22.82
2022-08-26T23:51:33.961Z,22.91
2022-08-26T23:54:00.686Z,23.03
2022-08-26T23:56:29.146Z,23.03
2022-08-26T23:58:56.124Z,23.04
